Terminal Aerodrome Forecast
Issued by NWS

Home | Current Version | Previous Version | Text Only | Print | Product List | Glossary On
Versions: 1 2 3 4 5 6 7 8 9 10 11 12 13 14 15 16 17 18
000
FTUS43 KBIS 042327
TAFDIK
TAF
KDIK 042327Z 0500/0524 17019G28KT P6SM FEW080
     FM050200 15011KT P6SM SKC
     FM051500 15017G23KT P6SM FEW080
     FM051800 16021G30KT P6SM SCT050 SCT080=

USA.gov is the U.S. government's official web portal to all federal, state and local government web resources and services.